Time;durP1;ratioP1;P1;durP2;ratioP2;P2;SDS_P1;SDS_P2;PMS_P1;PMS_P2;Temp;Humidity;BMP_temperature;BMP_pressure;BME280_temperature;BME280_humidity;BME280_pressure;Samples;Min_cycle;Max_cycle;Signal;HPM_P1;HPM_P2
2021/12/05 00:22:36;;;;;;;3.80;0.77;;;3.90;99.90;;;;;;5067825;28;20048;-61
2021/12/05 00:25:08;;;;;;;2.25;0.20;;;3.90;99.90;;;;;;5066700;28;20480;-60
2021/12/05 00:27:48;;;;;;;2.78;0.45;;;3.90;99.90;;;;;;5066683;28;20048;-59
2021/12/05 00:33:02;;;;;;;3.08;0.43;;;3.80;99.90;;;;;;5056023;28;20048;-60
2021/12/05 00:46:15;;;;;;;2.80;0.68;;;3.70;99.90;;;;;;5056167;28;20055;-60
2021/12/05 00:52:14;;;;;;;6.10;0.50;;;3.70;99.90;;;;;;5066877;28;20051;-61
2021/12/05 01:06:08;;;;;;;3.42;0.60;;;3.60;99.90;;;;;;5063042;28;20041;-60
2021/12/05 01:11:11;;;;;;;2.72;0.50;;;3.60;99.90;;;;;;5067840;28;20207;-59
2021/12/05 01:14:24;;;;;;;3.10;0.50;;;3.60;99.90;;;;;;5062509;28;20057;-61
2021/12/05 01:16:31;;;;;;;1.10;0.30;;;3.60;99.90;;;;;;5060175;28;20053;-60
2021/12/05 01:19:03;;;;;;;6.90;0.65;;;3.60;99.90;;;;;;5049818;28;20488;-60
2021/12/05 01:21:32;;;;;;;2.63;0.40;;;3.60;99.90;;;;;;5049572;28;20056;-60
2021/12/05 01:24:12;;;;;;;5.43;0.68;;;3.60;99.90;;;;;;5067717;28;20049;-60
2021/12/05 01:53:38;;;;;;;2.67;0.30;;;3.60;99.90;;;;;;5068856;28;20060;-61
2021/12/05 01:56:43;;;;;;;22.63;0.77;;;3.60;99.90;;;;;;5070453;28;20052;-61
2021/12/05 02:01:59;;;;;;;0.95;0.38;;;3.60;99.90;;;;;;5048637;28;20057;-62
2021/12/05 02:16:04;;;;;;;6.13;0.55;;;3.50;99.90;;;;;;5059191;28;20047;-60
2021/12/05 02:37:52;;;;;;;1.35;0.30;;;3.40;99.90;;;;;;5051649;28;20045;-60
2021/12/05 02:43:09;;;;;;;7.65;0.50;;;3.40;99.90;;;;;;5072549;28;20526;-60
2021/12/05 02:45:41;;;;;;;3.83;0.30;;;3.40;99.90;;;;;;5066406;28;20045;-60
2021/12/05 02:48:12;;;;;;;5.22;0.40;;;3.40;99.90;;;;;;5051876;28;20059;-60
2021/12/05 02:50:41;;;;;;;8.73;0.60;;;3.40;99.90;;;;;;5051545;28;20048;-59
2021/12/05 02:53:19;;;;;;;;;;;3.50;99.90;;;;;;5052224;28;20400;-59
2021/12/05 02:55:50;;;;;;;5.32;0.70;;;3.40;99.90;;;;;;5096565;28;20387;-59
2021/12/05 03:03:27;;;;;;;3.40;1.10;;;3.40;99.90;;;;;;5072765;28;20044;-59
2021/12/05 03:06:03;;;;;;;1.17;0.52;;;3.40;99.90;;;;;;5071280;28;20044;-59
2021/12/05 03:08:32;;;;;;;5.55;0.55;;;3.50;99.90;;;;;;5071278;28;20049;-60
2021/12/05 03:11:01;;;;;;;2.47;0.40;;;3.40;99.90;;;;;;5072600;28;20056;-60
2021/12/05 03:13:29;;;;;;;1.67;0.50;;;3.40;99.90;;;;;;5072079;28;20044;-59
2021/12/05 03:15:58;;;;;;;0.52;0.28;;;3.40;99.90;;;;;;5071081;28;20040;-60
2021/12/05 03:18:26;;;;;;;2.83;0.60;;;3.40;99.90;;;;;;5072584;28;20041;-60
2021/12/05 03:20:58;;;;;;;6.03;0.80;;;3.40;99.90;;;;;;5071371;28;20048;-61
2021/12/05 03:23:27;;;;;;;3.92;0.50;;;3.40;99.90;;;;;;5072299;28;20040;-61
2021/12/05 03:25:55;;;;;;;2.00;0.68;;;3.40;99.90;;;;;;5092232;28;20045;-61
2021/12/05 03:28:23;;;;;;;5.43;0.70;;;3.40;99.90;;;;;;5051147;28;20052;-61
2021/12/05 03:30:53;;;;;;;4.53;0.50;;;3.40;99.90;;;;;;5051549;28;20044;-63
2021/12/05 03:33:21;;;;;;;0.93;0.40;;;3.40;99.90;;;;;;5071858;28;20052;-62
2021/12/05 03:35:49;;;;;;;5.75;0.95;;;3.40;99.90;;;;;;5070647;28;20484;-62
2021/12/05 03:38:17;;;;;;;0.93;0.32;;;3.40;99.90;;;;;;5071424;28;20052;-60
2021/12/05 03:40:45;;;;;;;2.45;0.38;;;3.50;99.90;;;;;;5070159;28;20052;-62
2021/12/05 03:43:15;;;;;;;7.03;0.80;;;3.40;99.90;;;;;;5054014;28;20052;-62
2021/12/05 03:45:50;;;;;;;4.47;0.65;;;3.50;99.90;;;;;;5070434;28;20036;-62
2021/12/05 03:48:23;;;;;;;3.85;0.60;;;3.50;99.90;;;;;;5071222;28;20051;-61
2021/12/05 03:50:52;;;;;;;5.18;0.60;;;3.50;99.90;;;;;;5070788;28;20036;-63
2021/12/05 03:53:21;;;;;;;5.05;0.55;;;3.50;99.90;;;;;;5070654;28;20403;-60
2021/12/05 03:55:56;;;;;;;5.80;0.68;;;3.60;99.90;;;;;;5072560;28;20051;-60
2021/12/05 03:58:24;;;;;;;8.93;1.20;;;3.60;99.90;;;;;;5069853;28;20063;-60
2021/12/05 04:00:55;;;;;;;;;;;3.50;99.90;;;;;;5070488;28;20488;-60
2021/12/05 04:03:25;;;;;;;4.00;0.73;;;3.60;99.90;;;;;;5070557;28;19920;-61
2021/12/05 04:05:55;;;;;;;5.03;0.73;;;3.60;99.90;;;;;;5070520;28;20040;-60
2021/12/05 04:08:25;;;;;;;6.47;0.75;;;3.60;99.90;;;;;;5071321;28;20067;-61
2021/12/05 04:11:06;;;;;;;7.25;0.77;;;3.60;99.90;;;;;;5104228;28;20400;-61
2021/12/05 04:13:34;;;;;;;5.72;1.08;;;3.60;99.90;;;;;;5050032;28;20048;-61
2021/12/05 04:16:08;;;;;;;2.83;0.68;;;3.70;99.90;;;;;;5050369;28;20546;-62
2021/12/05 04:18:37;;;;;;;6.03;0.85;;;3.70;99.90;;;;;;5050199;28;20037;-61
2021/12/05 04:21:06;;;;;;;4.30;1.27;;;3.70;99.90;;;;;;5033469;28;20053;-61
2021/12/05 04:23:34;;;;;;;2.17;0.95;;;3.70;99.90;;;;;;5054715;28;20050;-60
2021/12/05 04:26:02;;;;;;;5.00;1.17;;;3.70;99.90;;;;;;5070220;28;20040;-61
2021/12/05 04:28:31;;;;;;;8.38;1.30;;;3.70;99.90;;;;;;5070174;28;20040;-61
2021/12/05 04:31:01;;;;;;;6.95;0.63;;;3.70;99.90;;;;;;5037368;28;20044;-60
2021/12/05 04:33:29;;;;;;;6.50;1.08;;;3.70;99.90;;;;;;5037308;28;20048;-60
2021/12/05 04:35:57;;;;;;;1.70;0.43;;;3.70;99.90;;;;;;5071399;28;20047;-59
2021/12/05 04:38:26;;;;;;;7.78;1.08;;;3.70;99.90;;;;;;5053561;28;20045;-60
2021/12/05 04:40:55;;;;;;;4.50;0.85;;;3.60;99.90;;;;;;5069875;28;20045;-60
2021/12/05 04:43:23;;;;;;;2.53;0.82;;;3.60;99.90;;;;;;5070020;28;20500;-61
2021/12/05 04:45:52;;;;;;;4.63;0.65;;;3.60;99.90;;;;;;5069968;28;20044;-62
2021/12/05 04:48:21;;;;;;;2.70;0.80;;;3.60;99.90;;;;;;5069992;28;20037;-61
2021/12/05 04:50:50;;;;;;;1.75;0.35;;;3.50;99.90;;;;;;5070051;28;20296;-62
2021/12/05 04:53:17;;;;;;;3.50;0.65;;;3.50;99.90;;;;;;5070871;28;20044;-61
2021/12/05 04:55:45;;;;;;;3.22;0.65;;;3.50;99.90;;;;;;5103756;28;20051;-61
2021/12/05 04:58:16;;;;;;;4.93;0.77;;;3.40;99.90;;;;;;5071086;28;20040;-61
2021/12/05 05:00:45;;;;;;;3.63;0.50;;;3.40;99.90;;;;;;5106895;28;20048;-61
2021/12/05 05:03:14;;;;;;;3.10;1.40;;;3.40;99.90;;;;;;5073548;28;20423;-62
2021/12/05 05:05:50;;;;;;;3.72;0.52;;;3.40;99.90;;;;;;5074822;28;20056;-60
2021/12/05 05:08:18;;;;;;;1.70;1.00;;;3.40;99.90;;;;;;5074514;28;20048;-60
2021/12/05 05:10:46;;;;;;;2.90;0.88;;;3.40;99.90;;;;;;5074228;28;20191;-62
2021/12/05 05:13:14;;;;;;;2.17;0.47;;;3.40;99.90;;;;;;5074657;28;20045;-62
2021/12/05 05:15:42;;;;;;;6.25;1.15;;;3.40;99.90;;;;;;5074719;28;20040;-62
2021/12/05 05:18:11;;;;;;;6.85;0.75;;;3.40;99.90;;;;;;5074770;28;20048;-61
2021/12/05 05:20:48;;;;;;;8.90;1.30;;;3.40;99.90;;;;;;5074464;28;20052;-61
2021/12/05 05:23:37;;;;;;;4.82;1.00;;;3.40;99.90;;;;;;5074359;28;20511;-62
2021/12/05 05:50:44;;;;;;;5.38;1.10;;;3.40;99.90;;;;;;5029041;28;20405;-62
2021/12/05 05:53:12;;;;;;;3.55;1.13;;;3.40;99.90;;;;;;5051065;28;20408;-60
2021/12/05 05:55:39;;;;;;;4.38;1.05;;;3.40;99.90;;;;;;5069446;28;20080;-61
2021/12/05 05:58:12;;;;;;;4.85;0.98;;;3.40;99.90;;;;;;5070736;28;20480;-62
2021/12/05 06:00:53;;;;;;;6.13;1.05;;;3.40;99.90;;;;;;5070311;28;20048;-62
2021/12/05 06:03:24;;;;;;;2.45;1.10;;;3.40;99.90;;;;;;5051555;28;20084;-61
2021/12/05 06:05:55;;;;;;;4.28;1.30;;;3.40;99.90;;;;;;5045715;28;20048;-61
2021/12/05 06:08:26;;;;;;;3.15;1.00;;;3.40;99.90;;;;;;5060101;28;20049;-61
2021/12/05 06:10:57;;;;;;;5.20;1.15;;;3.50;99.90;;;;;;5066571;28;20053;-61
2021/12/05 06:13:26;;;;;;;6.28;1.83;;;3.40;99.90;;;;;;5064213;28;20052;-60
2021/12/05 06:15:55;;;;;;;6.22;1.38;;;3.40;99.90;;;;;;5045493;28;20053;-62
2021/12/05 06:18:24;;;;;;;6.43;2.08;;;3.40;99.90;;;;;;5047837;28;20053;-61
2021/12/05 06:20:53;;;;;;;4.32;1.00;;;3.40;99.90;;;;;;5046071;28;20056;-60
2021/12/05 06:23:21;;;;;;;11.68;1.00;;;3.40;99.90;;;;;;5062904;28;20053;-62
2021/12/05 06:25:50;;;;;;;9.73;1.60;;;3.40;99.90;;;;;;5067553;28;20040;-62
2021/12/05 06:28:33;;;;;;;3.72;0.85;;;3.50;99.90;;;;;;5066187;28;20040;-63
2021/12/05 06:47:12;;;;;;;5.35;1.40;;;3.50;99.90;;;;;;5069811;28;20048;-64
2021/12/05 06:49:44;;;;;;;6.88;1.10;;;3.50;99.90;;;;;;5050577;28;20080;-65
2021/12/05 06:52:32;;;;;;;6.18;1.58;;;3.50;99.90;;;;;;5056235;28;20055;-62
2021/12/05 06:55:00;;;;;;;5.43;1.15;;;3.40;99.90;;;;;;5069205;28;20518;-61
2021/12/05 06:57:28;;;;;;;6.18;1.40;;;3.50;99.90;;;;;;5067797;28;20040;-62
2021/12/05 06:59:56;;;;;;;7.15;1.30;;;3.50;99.90;;;;;;5067888;28;20047;-66
2021/12/05 07:02:24;;;;;;;3.30;0.80;;;3.50;99.90;;;;;;5064420;28;20202;-62
2021/12/05 07:07:34;;;;;;;;;;;3.50;99.90;;;;;;5052742;28;20044;-63
2021/12/05 07:10:05;;;;;;;5.38;1.55;;;3.50;99.90;;;;;;5068388;28;19929;-61
2021/12/05 07:15:05;;;;;;;2.63;0.82;;;3.50;99.90;;;;;;5065228;28;20411;-62
2021/12/05 07:25:45;;;;;;;4.82;1.17;;;3.50;99.90;;;;;;5067750;28;20040;-62
2021/12/05 07:42:23;;;;;;;6.88;0.98;;;3.50;99.90;;;;;;5068125;28;20056;-61
2021/12/05 07:44:52;;;;;;;5.68;1.73;;;3.50;99.90;;;;;;5048810;28;20057;-61
2021/12/05 07:47:27;;;;;;;11.10;1.48;;;3.40;99.90;;;;;;5049900;28;20048;-62
2021/12/05 07:49:56;;;;;;;4.90;1.38;;;3.50;99.90;;;;;;5052819;28;20049;-66
2021/12/05 07:52:27;;;;;;;6.88;1.55;;;3.40;99.90;;;;;;5053349;28;20043;-61
2021/12/05 07:55:16;;;;;;;9.85;1.05;;;3.40;99.90;;;;;;5067107;28;20068;-61
2021/12/05 07:58:20;;;;;;;13.85;1.90;;;3.40;99.90;;;;;;5068491;28;20041;-61
2021/12/05 08:16:52;;;;;;;8.23;1.42;;;3.30;99.90;;;;;;5068490;28;20052;-61
2021/12/05 08:19:20;;;;;;;11.07;1.65;;;3.30;99.90;;;;;;5059536;28;20044;-61
2021/12/05 08:21:57;;;;;;;5.43;1.23;;;3.30;99.90;;;;;;5048190;28;20443;-61
2021/12/05 08:24:30;;;;;;;7.72;1.10;;;3.30;99.90;;;;;;5067710;28;20040;-61
2021/12/05 08:26:59;;;;;;;8.52;1.17;;;3.30;99.90;;;;;;5067456;28;20051;-61
2021/12/05 08:29:35;;;;;;;6.22;1.13;;;3.30;99.90;;;;;;5067908;28;20048;-63
2021/12/05 09:24:49;;;;;;;7.85;1.23;;;3.40;99.90;;;;;;5070662;28;20056;-66
2021/12/05 10:07:03;;;;;;;9.43;1.80;;;3.90;99.90;;;;;;5049316;28;20043;-61
2021/12/05 10:15:30;;;;;;;8.18;1.45;;;4.00;99.90;;;;;;5070576;28;20483;-63
2021/12/05 10:38:08;;;;;;;4.05;0.95;;;4.20;99.90;;;;;;5048831;28;20061;-63
2021/12/05 10:40:54;;;;;;;7.15;1.77;;;4.20;99.90;;;;;;5069454;28;20392;-61
2021/12/05 10:43:30;;;;;;;3.20;0.90;;;4.20;99.90;;;;;;5069228;28;20052;-61
2021/12/05 10:46:08;;;;;;;11.45;1.63;;;4.20;99.90;;;;;;5068484;28;20044;-62
2021/12/05 10:48:48;;;;;;;6.80;1.70;;;4.20;99.90;;;;;;5068207;28;20052;-61
2021/12/05 10:51:28;;;;;;;6.15;0.93;;;4.30;99.90;;;;;;5055324;28;20060;-63
2021/12/05 10:53:58;;;;;;;3.15;0.98;;;4.30;99.90;;;;;;5064873;28;20408;-62
2021/12/05 10:56:44;;;;;;;6.50;1.15;;;4.40;99.90;;;;;;5068506;28;20052;-63
2021/12/05 10:59:21;;;;;;;8.65;0.90;;;4.50;99.90;;;;;;5068600;28;20325;-63
2021/12/05 11:02:01;;;;;;;5.57;1.00;;;4.50;99.90;;;;;;5069509;28;20299;-63
2021/12/05 11:04:35;;;;;;;6.18;0.98;;;4.60;99.90;;;;;;5068017;28;20490;-63
2021/12/05 11:07:17;;;;;;;7.05;0.88;;;4.60;99.90;;;;;;5047517;28;20041;-63
2021/12/05 11:09:50;;;;;;;4.63;0.90;;;4.70;99.90;;;;;;5049154;28;20488;-63
2021/12/05 11:12:23;;;;;;;4.78;0.93;;;4.70;99.90;;;;;;5057978;28;20044;-62
2021/12/05 11:15:02;;;;;;;5.43;1.13;;;4.70;99.90;;;;;;5051381;28;20044;-62
2021/12/05 11:17:32;;;;;;;6.97;1.67;;;4.80;99.90;;;;;;5068770;28;20076;-62
2021/12/05 11:20:09;;;;;;;2.50;1.20;;;4.90;99.90;;;;;;5065749;28;20048;-62
2021/12/05 11:22:40;;;;;;;4.45;1.20;;;5.00;99.90;;;;;;5054772;28;20052;-62
2021/12/05 11:25:19;;;;;;;8.00;1.02;;;5.10;99.90;;;;;;5067440;28;20057;-62
2021/12/05 11:27:49;;;;;;;3.97;1.35;;;5.30;99.90;;;;;;5068314;28;20495;-62
2021/12/05 11:30:19;;;;;;;4.78;1.10;;;5.30;99.90;;;;;;5068650;28;20044;-62
2021/12/05 11:32:52;;;;;;;3.00;1.17;;;5.40;99.90;;;;;;5068360;28;20040;-63
2021/12/05 11:35:44;;;;;;;9.00;1.83;;;5.50;99.90;;;;;;5065264;28;20233;-62
2021/12/05 11:38:17;;;;;;;10.40;1.48;;;5.60;99.90;;;;;;5056145;28;20052;-62
2021/12/05 11:41:10;;;;;;;5.00;0.95;;;5.60;99.90;;;;;;5068283;28;20059;-62
2021/12/05 11:43:58;;;;;;;12.55;1.58;;;5.60;99.90;;;;;;5067985;28;20427;-61
2021/12/05 11:46:36;;;;;;;6.15;1.02;;;5.50;99.90;;;;;;5068227;28;20275;-62
2021/12/05 11:49:10;;;;;;;4.68;0.90;;;5.40;99.90;;;;;;5068447;28;20045;-64
2021/12/05 11:51:44;;;;;;;4.15;1.00;;;5.40;99.90;;;;;;5055076;28;20064;-62
2021/12/05 11:54:18;;;;;;;7.20;0.80;;;5.30;99.90;;;;;;5050271;28;20044;-61
2021/12/05 11:57:26;;;;;;;10.35;1.45;;;5.20;99.90;;;;;;5067897;28;20040;-62
2021/12/05 12:00:03;;;;;;;5.50;1.23;;;5.20;99.90;;;;;;5067982;28;20077;-62
2021/12/05 12:02:37;;;;;;;2.63;1.02;;;5.20;99.90;;;;;;5068058;28;20048;-62
2021/12/05 12:05:14;;;;;;;5.13;0.70;;;5.10;99.90;;;;;;5066833;28;20055;-63
2021/12/05 12:07:47;;;;;;;5.13;0.93;;;5.10;99.90;;;;;;5052679;28;20041;-62
2021/12/05 12:10:21;;;;;;;6.47;1.38;;;5.10;99.90;;;;;;5067495;28;20052;-64
2021/12/05 12:13:03;;;;;;;6.38;1.30;;;5.10;99.90;;;;;;5067652;28;20072;-62
2021/12/05 12:15:32;;;;;;;5.65;1.25;;;5.10;99.90;;;;;;5066910;28;20388;-62
2021/12/05 12:18:12;;;;;;;8.63;1.15;;;5.10;99.90;;;;;;5067602;28;20068;-61
2021/12/05 12:20:40;;;;;;;;;;;5.10;99.90;;;;;;5065130;28;20041;-62
2021/12/05 12:23:08;;;;;;;6.55;1.52;;;5.10;99.90;;;;;;5057554;28;20385;-63
2021/12/05 12:25:38;;;;;;;6.57;1.20;;;5.10;99.90;;;;;;5067571;28;20041;-62
2021/12/05 12:28:08;;;;;;;4.43;1.20;;;5.10;99.90;;;;;;5067785;28;20036;-65
2021/12/05 12:30:39;;;;;;;7.03;1.35;;;5.10;99.90;;;;;;5067940;28;20119;-62
2021/12/05 12:33:14;;;;;;;5.60;1.30;;;5.30;99.90;;;;;;5067570;28;20395;-63
2021/12/05 12:35:48;;;;;;;5.60;1.00;;;5.40;99.90;;;;;;5061415;28;20044;-62
2021/12/05 12:38:23;;;;;;;5.70;1.10;;;5.50;99.90;;;;;;5066953;28;20048;-63
2021/12/05 12:40:56;;;;;;;18.38;1.88;;;5.50;99.90;;;;;;5063451;28;20396;-63
2021/12/05 12:43:48;;;;;;;6.65;1.15;;;5.50;99.90;;;;;;5067739;28;20040;-64
2021/12/05 12:46:34;;;;;;;6.72;1.50;;;5.50;99.90;;;;;;5068004;28;20045;-62
2021/12/05 12:49:16;;;;;;;5.28;1.58;;;5.50;99.90;;;;;;5067486;28;20057;-62
2021/12/05 12:52:03;;;;;;;8.20;1.42;;;5.40;99.90;;;;;;5066594;28;20041;-62
2021/12/05 12:54:45;;;;;;;10.68;1.63;;;5.30;99.90;;;;;;5066799;28;20396;-64
2021/12/05 12:57:24;;;;;;;8.18;1.30;;;5.30;99.90;;;;;;5066032;28;20472;-66
2021/12/05 12:59:56;;;;;;;6.03;1.33;;;5.30;99.90;;;;;;5067566;28;20484;-66
2021/12/05 13:02:36;;;;;;;11.43;1.88;;;5.30;99.90;;;;;;5063734;28;20729;-62
2021/12/05 13:05:39;;;;;;;6.97;0.90;;;5.30;99.90;;;;;;5064179;28;20045;-64
2021/12/05 13:11:06;;;;;;;11.02;1.20;;;5.30;99.90;;;;;;5065711;28;20040;-63
2021/12/05 13:13:36;;;;;;;8.48;0.88;;;5.20;99.90;;;;;;5060649;28;20052;-65
2021/12/05 13:16:13;;;;;;;17.95;1.92;;;5.20;99.90;;;;;;5062317;28;20495;-62
2021/12/05 13:18:44;;;;;;;6.00;1.25;;;5.20;99.90;;;;;;5051510;28;20048;-64
2021/12/05 13:21:29;;;;;;;2.20;0.77;;;5.10;99.90;;;;;;5060156;28;20045;-63
2021/12/05 13:23:57;;;;;;;5.10;0.85;;;5.10;99.90;;;;;;5070077;28;20048;-64
2021/12/05 13:26:34;;;;;;;6.07;0.98;;;5.10;99.90;;;;;;5044649;28;20516;-65
2021/12/05 13:29:17;;;;;;;8.98;1.20;;;5.10;99.90;;;;;;5067772;28;20067;-63
2021/12/05 13:31:55;;;;;;;9.52;1.20;;;5.10;99.90;;;;;;5070024;28;20064;-63
2021/12/05 13:34:30;;;;;;;5.43;0.88;;;5.10;99.90;;;;;;5068980;28;20040;-63
2021/12/05 13:37:23;;;;;;;11.63;1.70;;;5.10;99.90;;;;;;5070904;28;20507;-65
2021/12/05 13:39:56;;;;;;;7.03;1.20;;;5.10;99.90;;;;;;5065255;28;20497;-65
2021/12/05 13:42:28;;;;;;;8.77;0.93;;;5.10;99.90;;;;;;5069974;28;20043;-67
2021/12/05 13:45:17;;;;;;;12.93;1.40;;;5.10;99.90;;;;;;5070539;28;20301;-62
2021/12/05 13:47:56;;;;;;;6.97;1.30;;;5.20;99.90;;;;;;5069544;28;20456;-67
2021/12/05 13:50:31;;;;;;;10.27;1.27;;;5.20;99.90;;;;;;5069027;28;20119;-65
2021/12/05 13:53:02;;;;;;;6.65;1.00;;;5.30;99.90;;;;;;5066370;28;20049;-69
2021/12/05 13:55:34;;;;;;;5.93;1.08;;;5.30;99.90;;;;;;5070691;28;20044;-70
2021/12/05 13:58:22;;;;;;;10.13;1.20;;;5.30;99.90;;;;;;5068726;28;20036;-70
2021/12/05 14:01:05;;;;;;;9.35;1.45;;;5.30;99.90;;;;;;5049215;28;20048;-67
2021/12/05 14:04:01;;;;;;;13.80;1.77;;;5.30;99.90;;;;;;5063540;28;20044;-69
2021/12/05 14:06:54;;;;;;;10.48;1.58;;;5.20;99.90;;;;;;5069863;28;20199;-64
2021/12/05 14:09:36;;;;;;;4.18;0.93;;;5.20;99.90;;;;;;5069670;28;20060;-69
2021/12/05 14:12:20;;;;;;;4.88;0.85;;;5.20;99.90;;;;;;5068556;28;20060;-70
2021/12/05 14:14:54;;;;;;;5.65;1.00;;;5.20;99.90;;;;;;5070139;28;20483;-68
2021/12/05 14:17:37;;;;;;;5.88;1.17;;;5.10;99.90;;;;;;5068826;28;20055;-66
2021/12/05 14:20:13;;;;;;;7.20;1.30;;;5.20;99.90;;;;;;5068991;28;20049;-63
2021/12/05 14:22:43;;;;;;;5.75;0.82;;;5.20;99.90;;;;;;5069321;28;20404;-68
2021/12/05 14:25:14;;;;;;;5.60;0.90;;;5.20;99.90;;;;;;5068471;28;20403;-67
2021/12/05 14:27:52;;;;;;;6.72;0.93;;;5.20;99.90;;;;;;5069767;28;20516;-70
2021/12/05 14:30:22;;;;;;;5.00;1.30;;;5.20;99.90;;;;;;5069848;28;20049;-70
2021/12/05 14:32:58;;;;;;;4.93;1.50;;;5.20;99.90;;;;;;5065393;28;20053;-64
2021/12/05 14:35:44;;;;;;;6.93;1.00;;;5.20;99.90;;;;;;5065591;28;20040;-70
2021/12/05 14:38:14;;;;;;;9.65;1.63;;;5.10;99.90;;;;;;5057238;28;20037;-67
2021/12/05 14:40:43;;;;;;;5.03;0.93;;;5.20;99.90;;;;;;5069529;28;20064;-63
2021/12/05 14:43:12;;;;;;;4.88;1.58;;;5.10;99.90;;;;;;5068339;28;20044;-67
2021/12/05 14:45:41;;;;;;;5.43;1.02;;;5.10;99.90;;;;;;5069414;28;20053;-66
2021/12/05 14:48:12;;;;;;;9.18;1.52;;;5.20;99.90;;;;;;5069193;28;20377;-69
2021/12/05 14:50:51;;;;;;;5.78;1.08;;;5.20;99.90;;;;;;5068225;28;20048;-69
2021/12/05 14:53:24;;;;;;;5.95;1.45;;;5.10;99.90;;;;;;5065192;28;20048;-70
2021/12/05 14:55:58;;;;;;;6.38;1.52;;;5.20;99.90;;;;;;5069522;28;20493;-68
2021/12/05 14:58:30;;;;;;;6.57;1.17;;;5.20;99.90;;;;;;5067948;28;20049;-69
2021/12/05 15:01:00;;;;;;;3.70;1.10;;;5.10;99.90;;;;;;5068225;28;20059;-70
2021/12/05 15:03:30;;;;;;;9.35;1.73;;;5.10;99.90;;;;;;5067582;28;20322;-70
2021/12/05 15:06:03;;;;;;;6.45;2.20;;;5.10;99.90;;;;;;5069188;28;20041;-69
2021/12/05 15:08:31;;;;;;;7.18;1.73;;;5.10;99.90;;;;;;5064568;28;20055;-70
2021/12/05 15:11:02;;;;;;;9.15;1.83;;;5.10;99.90;;;;;;5069543;28;20396;-69
2021/12/05 15:13:30;;;;;;;5.70;1.23;;;5.00;99.90;;;;;;5069175;28;20052;-69
2021/12/05 15:15:59;;;;;;;14.50;2.60;;;5.10;99.90;;;;;;5068806;28;20056;-63
2021/12/05 15:18:29;;;;;;;5.10;1.48;;;5.00;99.90;;;;;;5101733;28;20045;-62
2021/12/05 15:20:58;;;;;;;9.23;1.75;;;5.00;99.90;;;;;;5069113;28;20045;-63
2021/12/05 15:23:29;;;;;;;12.45;1.48;;;5.00;99.90;;;;;;5066889;28;20436;-63
2021/12/05 15:26:04;;;;;;;7.85;2.25;;;5.00;99.90;;;;;;5068655;28;20051;-63
2021/12/05 15:28:35;;;;;;;3.55;1.00;;;5.00;99.90;;;;;;5068549;28;20044;-62
2021/12/05 15:31:05;;;;;;;4.13;1.20;;;4.90;99.90;;;;;;5067620;28;20044;-62
2021/12/05 15:33:34;;;;;;;7.72;1.25;;;5.00;99.90;;;;;;5068368;28;20053;-63
2021/12/05 15:36:03;;;;;;;3.70;1.38;;;5.00;99.90;;;;;;5068465;28;20052;-65
2021/12/05 15:38:33;;;;;;;5.38;1.65;;;4.90;99.90;;;;;;5048550;28;20052;-62
2021/12/05 15:41:09;;;;;;;5.78;1.30;;;5.00;99.90;;;;;;5068532;28;20040;-63
2021/12/05 15:43:40;;;;;;;8.95;1.50;;;4.90;99.90;;;;;;5067849;28;20060;-63
2021/12/05 15:46:12;;;;;;;8.52;1.65;;;4.90;99.90;;;;;;5068304;28;20052;-66
2021/12/05 15:48:45;;;;;;;6.85;1.45;;;4.90;99.90;;;;;;5068372;28;20476;-63
2021/12/05 15:51:13;;;;;;;10.68;1.90;;;4.90;99.90;;;;;;5069168;28;20384;-63
2021/12/05 15:53:41;;;;;;;10.60;1.80;;;4.80;99.90;;;;;;5066418;28;20055;-62
2021/12/05 15:56:15;;;;;;;14.30;2.10;;;4.80;99.90;;;;;;5068326;28;20518;-63
2021/12/05 15:59:01;;;;;;;9.82;1.80;;;4.80;99.90;;;;;;5064071;28;20052;-63
2021/12/05 16:01:33;;;;;;;8.73;1.60;;;4.80;99.90;;;;;;5064521;28;20051;-62
2021/12/05 16:04:04;;;;;;;9.27;2.55;;;4.80;99.90;;;;;;5064108;28;20049;-62
2021/12/05 16:06:35;;;;;;;7.10;1.77;;;4.80;99.90;;;;;;5064684;28;20049;-65
2021/12/05 16:09:14;;;;;;;10.07;1.67;;;4.80;99.90;;;;;;5061048;28;20041;-63
2021/12/05 16:11:43;;;;;;;10.68;1.60;;;4.80;99.90;;;;;;5064813;28;20044;-63
2021/12/05 16:14:11;;;;;;;3.15;1.10;;;4.80;99.90;;;;;;5064757;28;20047;-62
2021/12/05 16:16:39;;;;;;;5.53;1.38;;;4.80;99.90;;;;;;5043526;28;20060;-63
2021/12/05 16:19:10;;;;;;;12.68;1.98;;;4.80;99.90;;;;;;5060274;28;20491;-62
2021/12/05 16:21:39;;;;;;;12.07;1.52;;;4.80;99.90;;;;;;5062933;28;20060;-63
2021/12/05 16:24:07;;;;;;;10.48;2.40;;;4.80;99.90;;;;;;5049891;28;20378;-62
2021/12/05 16:26:36;;;;;;;13.05;1.70;;;4.70;99.90;;;;;;5043709;28;20037;-63
2021/12/05 16:29:10;;;;;;;5.85;1.90;;;4.80;99.90;;;;;;5058102;28;20434;-63
2021/12/05 16:31:41;;;;;;;5.47;2.00;;;4.70;99.90;;;;;;5063075;28;20048;-63
2021/12/05 16:34:17;;;;;;;7.95;2.00;;;4.70;99.90;;;;;;5064151;28;20048;-65
2021/12/05 16:36:56;;;;;;;8.48;2.22;;;4.70;99.90;;;;;;5065061;28;20124;-64
2021/12/05 16:39:48;;;;;;;7.07;1.88;;;4.70;99.90;;;;;;5063675;28;20499;-63
2021/12/05 16:42:23;;;;;;;5.43;2.08;;;4.70;99.90;;;;;;5062800;28;20056;-63
2021/12/05 16:44:55;;;;;;;10.98;2.60;;;4.70;99.90;;;;;;5063994;28;20428;-63
2021/12/05 16:47:26;;;;;;;11.15;2.83;;;4.80;99.90;;;;;;5064421;28;20048;-64
2021/12/05 16:49:56;;;;;;;10.77;3.33;;;4.70;99.90;;;;;;5064301;28;20443;-63
2021/12/05 16:52:35;;;;;;;11.25;2.50;;;4.70;99.90;;;;;;5062112;28;20049;-62
2021/12/05 16:55:25;;;;;;;10.77;3.78;;;4.70;99.90;;;;;;5044179;28;20041;-63
2021/12/05 16:58:09;;;;;;;12.82;3.85;;;4.80;99.90;;;;;;5053188;28;20522;-65
2021/12/05 17:00:42;;;;;;;14.02;3.55;;;4.70;99.90;;;;;;5066443;28;20052;-63
2021/12/05 17:03:17;;;;;;;9.98;2.25;;;4.70;99.90;;;;;;5066579;28;20500;-63
2021/12/05 17:05:48;;;;;;;11.02;2.95;;;4.70;99.90;;;;;;5067916;28;20072;-65
2021/12/05 17:08:22;;;;;;;6.68;2.03;;;4.70;99.90;;;;;;5063113;28;20055;-63
2021/12/05 17:10:53;;;;;;;8.05;2.15;;;4.70;99.90;;;;;;5051839;28;20226;-62
2021/12/05 17:13:26;;;;;;;11.68;2.15;;;4.70;99.90;;;;;;5066378;28;20496;-64
2021/12/05 17:15:54;;;;;;;11.80;2.05;;;4.70;99.90;;;;;;5067724;28;20045;-63
2021/12/05 17:18:27;;;;;;;10.07;3.03;;;4.70;99.90;;;;;;5066566;28;20044;-63
2021/12/05 17:20:55;;;;;;;6.18;2.10;;;4.60;99.90;;;;;;5068171;28;20500;-63
2021/12/05 17:23:31;;;;;;;7.60;2.10;;;4.70;99.90;;;;;;5062968;28;20052;-64
2021/12/05 17:26:13;;;;;;;4.38;1.75;;;4.70;99.90;;;;;;5066323;28;20575;-64
2021/12/05 17:28:56;;;;;;;8.43;2.50;;;4.70;99.90;;;;;;5067526;28;20553;-70
2021/12/05 17:31:38;;;;;;;12.23;3.55;;;4.60;99.90;;;;;;5066951;28;20048;-69
2021/12/05 17:34:10;;;;;;;10.63;4.03;;;4.60;99.90;;;;;;5066024;28;20055;-70
2021/12/05 17:36:41;;;;;;;14.63;3.30;;;4.60;99.90;;;;;;5067497;28;20045;-67
2021/12/05 17:39:20;;;;;;;10.43;3.47;;;4.60;99.90;;;;;;5057600;28;20052;-69
2021/12/05 17:41:52;;;;;;;6.78;2.78;;;4.50;99.90;;;;;;5079930;28;20044;-70
2021/12/05 17:44:21;;;;;;;14.27;3.22;;;4.50;99.90;;;;;;5047396;28;20067;-64
2021/12/05 17:46:52;;;;;;;10.35;2.13;;;4.40;99.90;;;;;;5067439;28;20044;-69
2021/12/05 17:49:23;;;;;;;9.88;2.00;;;4.30;99.90;;;;;;5065793;28;20059;-71
2021/12/05 17:51:50;;;;;;;5.88;2.15;;;4.30;99.90;;;;;;5049485;28;20058;-71
2021/12/05 17:54:38;;;;;;;8.15;1.95;;;4.20;99.90;;;;;;5055866;28;20056;-64
2021/12/05 17:57:12;;;;;;;11.10;1.95;;;4.20;99.90;;;;;;5046190;28;20443;-66
2021/12/05 18:05:35;;;;;;;6.28;2.13;;;4.30;99.90;;;;;;5057364;28;20531;-65
2021/12/05 18:08:10;;;;;;;6.82;1.63;;;4.20;99.90;;;;;;5065344;28;20401;-67
2021/12/05 18:10:47;;;;;;;9.80;2.63;;;4.20;99.90;;;;;;5047208;28;20045;-64
2021/12/05 18:13:21;;;;;;;13.63;1.98;;;4.20;99.90;;;;;;5055159;28;20048;-62
2021/12/05 18:16:05;;;;;;;15.63;2.20;;;4.10;99.90;;;;;;5065236;28;20045;-62
2021/12/05 18:18:35;;;;;;;13.25;2.10;;;4.10;99.90;;;;;;5066742;28;20052;-65
2021/12/05 18:21:04;;;;;;;8.95;2.08;;;4.10;99.90;;;;;;5066886;28;20052;-65
2021/12/05 18:23:37;;;;;;;12.05;2.70;;;4.00;99.90;;;;;;5064423;28;20051;-64
2021/12/05 18:26:05;;;;;;;11.35;2.05;;;4.00;99.90;;;;;;5046972;28;20060;-65
2021/12/05 18:28:35;;;;;;;11.32;2.80;;;3.90;99.90;;;;;;5057105;28;20040;-63
2021/12/05 18:31:03;;;;;;;11.23;2.40;;;3.90;99.90;;;;;;5066583;28;20045;-63
2021/12/05 18:33:32;;;;;;;82.78;19.63;;;3.80;99.90;;;;;;5065972;28;20056;-64
2021/12/05 18:36:02;;;;;;;29.98;6.65;;;3.70;99.90;;;;;;5066550;28;20400;-63
2021/12/05 18:38:32;;;;;;;25.90;5.00;;;3.70;99.90;;;;;;5064921;28;20052;-62
2021/12/05 18:41:07;;;;;;;9.68;3.00;;;3.70;99.90;;;;;;5045413;28;20504;-64
2021/12/05 18:43:37;;;;;;;14.65;2.22;;;3.60;99.90;;;;;;5057312;28;20472;-62
2021/12/05 18:46:07;;;;;;;12.25;2.50;;;3.50;99.90;;;;;;5044549;28;20053;-63
2021/12/05 18:48:36;;;;;;;13.13;2.97;;;3.40;99.90;;;;;;5056747;28;20068;-62
2021/12/05 18:51:05;;;;;;;9.52;2.42;;;3.40;99.90;;;;;;5066144;28;20044;-63
2021/12/05 18:53:34;;;;;;;12.60;2.60;;;3.30;99.90;;;;;;5065563;28;20563;-63
2021/12/05 18:56:03;;;;;;;7.15;2.38;;;3.30;99.90;;;;;;5046384;28;20049;-64
2021/12/05 18:58:33;;;;;;;8.00;2.60;;;3.20;99.90;;;;;;5055795;28;20412;-62
2021/12/05 19:06:43;;;;;;;14.32;3.13;;;3.10;99.90;;;;;;5065027;28;20403;-65